Hauptseite
METAR-TAF:

METAR-TAF

Flughäfen :

Militärflugplatz

Tulln an der Donau, Österreich

Breite: 48-19N, Länge: 016-07E, Höhe: 175 m

METAR: fehlend

Zeit: 21:58 (19:58 UTC)

Prognose

Neuester Wetterbericht von vor 32 Stunden und 43 Minuten, um 11:15 UTC
Gültige Prognose vom 29 um 12 UTC bis 29 um 21 UTC
Wind 6 kt aus West/Südwest
Sichtweite 10 km oder mehr
Aufgelockert bewölkt in der Höhe von 6000 ft
Durchbrochene Bewölkung in der Höhe von 30000 ft

TAF: LOXT 291115Z 2912/2921 24006KT 9999 SCT060 BKN300

Wetterbeobachtungen und Prognosen von mehr als 4000 Flughäfen (METAR und TAF Bericht).

Die verfügbaren Stationen werden durch gelbe und rote Markierungen auf der Karte dargestellt.

Führen Sie die Maus auf sie, um den Namen der Station zu sehen.

Darauf klicken, um die Beobachtung von Wetterbeobachtungen und Prognosen zu sehen.

Um die Karte zu ändern : klicken Sie auf den grünen Tasten mit einem schwarzen Kreuz Zum Vergrößern, auf den grünen Button mit einem Gedankenstrich zu verkleinern, oder auf die grünen Pfeile für benachbarte Karten.


METAR-TAF: